Time;durP1;ratioP1;P1;durP2;ratioP2;P2;SDS_P1;SDS_P2;PMS_P1;PMS_P2;Temp;Humidity;BMP_temperature;BMP_pressure;BME280_temperature;BME280_humidity;BME280_pressure;Samples;Min_cycle;Max_cycle;Signal;HPM_P1;HPM_P2
2023/05/16 05:00:49;;;;;;;41.40;35.50;;;14.40;97.20;;;;;;1740575;28;20199;-74
2023/05/16 05:01:40;;;;;;;38.88;34.55;;;14.40;97.20;;;;;;1740559;28;20685;-75
2023/05/16 05:02:32;;;;;;;41.90;32.83;;;14.40;97.20;;;;;;1740348;28;20199;-74
2023/05/16 05:03:23;;;;;;;36.38;32.28;;;14.50;97.20;;;;;;1740153;28;20210;-74
2023/05/16 05:04:16;;;;;;;42.70;36.50;;;14.40;97.20;;;;;;1740795;28;20206;-74
2023/05/16 05:05:08;;;;;;;38.35;33.30;;;14.40;97.20;;;;;;1739427;28;20865;-74
2023/05/16 05:05:59;;;;;;;37.00;32.17;;;14.40;97.20;;;;;;1737706;28;20261;-74
2023/05/16 05:06:51;;;;;;;41.95;34.97;;;14.40;97.20;;;;;;1740336;28;20203;-75
2023/05/16 05:07:42;;;;;;;38.40;33.30;;;14.50;97.20;;;;;;1740726;28;20234;-74
2023/05/16 05:08:33;;;;;;;38.17;33.45;;;14.50;97.20;;;;;;1740821;28;20203;-74
2023/05/16 05:09:25;;;;;;;38.60;32.67;;;14.50;97.20;;;;;;1740724;28;20207;-74
2023/05/16 05:10:16;;;;;;;37.47;32.05;;;14.50;97.20;;;;;;1739454;28;20199;-75
2023/05/16 05:11:08;;;;;;;39.20;34.83;;;14.50;97.20;;;;;;1738933;28;20295;-74
2023/05/16 05:11:59;;;;;;;39.95;33.63;;;14.50;97.20;;;;;;1740531;28;20445;-75
2023/05/16 05:12:50;;;;;;;38.90;32.70;;;14.50;97.20;;;;;;1738052;28;20204;-75
2023/05/16 05:13:41;;;;;;;37.80;33.70;;;14.50;97.20;;;;;;1738742;28;20712;-75
2023/05/16 05:14:33;;;;;;;38.70;33.57;;;14.50;97.20;;;;;;1733813;28;20688;-75
2023/05/16 05:15:24;;;;;;;37.55;32.97;;;14.50;97.20;;;;;;1733875;28;20211;-74
2023/05/16 05:16:17;;;;;;;41.53;33.00;;;14.50;97.20;;;;;;1733230;28;20204;-74
2023/05/16 05:17:07;;;;;;;40.47;34.75;;;14.50;97.20;;;;;;1733244;28;20207;-74
2023/05/16 05:17:59;;;;;;;40.17;33.80;;;14.50;97.20;;;;;;1733268;28;20203;-74
2023/05/16 05:18:50;;;;;;;39.17;33.38;;;14.50;97.20;;;;;;1733507;28;20200;-74
2023/05/16 05:19:41;;;;;;;38.13;33.90;;;14.50;97.20;;;;;;1740063;28;20261;-74
2023/05/16 05:20:32;;;;;;;40.15;33.40;;;14.50;97.20;;;;;;1739854;28;20231;-75
2023/05/16 05:21:24;;;;;;;39.90;34.73;;;14.50;97.20;;;;;;1740229;28;20226;-74
2023/05/16 05:22:15;;;;;;;39.88;34.70;;;14.50;97.20;;;;;;1740317;28;20403;-74
2023/05/16 05:23:07;;;;;;;41.80;35.17;;;14.50;97.20;;;;;;1740086;28;20203;-74
2023/05/16 05:23:57;;;;;;;41.55;34.40;;;14.50;97.20;;;;;;1739963;28;20210;-73
2023/05/16 05:24:49;;;;;;;41.30;36.40;;;14.50;97.20;;;;;;1740126;28;20209;-73
2023/05/16 05:25:40;;;;;;;42.25;35.50;;;14.50;97.20;;;;;;1740435;28;20203;-73
2023/05/16 05:26:32;;;;;;;38.30;33.20;;;14.50;97.20;;;;;;1740590;28;20195;-73
2023/05/16 05:27:24;;;;;;;40.47;34.35;;;14.50;97.20;;;;;;1740710;28;20569;-73
2023/05/16 05:28:16;;;;;;;38.08;34.05;;;14.50;97.20;;;;;;1740722;28;20257;-73
2023/05/16 05:29:07;;;;;;;43.13;36.90;;;14.50;97.20;;;;;;1741944;28;20207;-73
2023/05/16 05:29:59;;;;;;;39.45;34.13;;;14.50;97.20;;;;;;1746535;28;20198;-73
2023/05/16 05:30:49;;;;;;;38.05;32.55;;;14.50;97.20;;;;;;1747459;28;20280;-74
2023/05/16 05:31:42;;;;;;;38.13;33.93;;;14.50;97.20;;;;;;1747536;28;20195;-73
2023/05/16 05:32:33;;;;;;;39.03;34.15;;;14.60;97.20;;;;;;1747500;28;20198;-73
2023/05/16 05:33:28;;;;;;;36.53;32.47;;;14.60;97.20;;;;;;1747624;28;20288;-74
2023/05/16 05:34:18;;;;;;;40.25;35.63;;;14.60;97.20;;;;;;1747595;28;20203;-73
2023/05/16 05:35:10;;;;;;;40.40;34.47;;;14.60;97.20;;;;;;1747541;28;20213;-73
2023/05/16 05:36:01;;;;;;;38.33;33.70;;;14.60;97.20;;;;;;1747598;28;20213;-73
2023/05/16 05:36:53;;;;;;;37.90;32.70;;;14.60;97.20;;;;;;1747606;28;20202;-74
2023/05/16 05:37:44;;;;;;;39.03;32.95;;;14.60;97.20;;;;;;1748017;28;20202;-74
2023/05/16 05:38:36;;;;;;;37.83;33.87;;;14.60;97.20;;;;;;1748885;28;20191;-73
2023/05/16 05:39:26;;;;;;;41.90;35.80;;;14.60;97.20;;;;;;1748725;28;20590;-73
2023/05/16 05:40:18;;;;;;;40.03;33.70;;;14.60;97.20;;;;;;1748270;28;20234;-74
2023/05/16 05:41:10;;;;;;;41.00;34.55;;;14.70;97.20;;;;;;1746929;28;20198;-73
2023/05/16 05:42:03;;;;;;;39.50;33.80;;;14.70;97.20;;;;;;1741835;28;20206;-74
2023/05/16 06:43:22;;;;;;;33.30;29.55;;;14.00;97.20;;;;;;1767739;27;20548;-73
2023/05/16 06:44:13;;;;;;;32.25;28.80;;;14.70;97.20;;;;;;1761289;28;20227;-74
2023/05/16 06:45:06;;;;;;;32.45;29.02;;;14.80;97.20;;;;;;1760824;28;20200;-75
2023/05/16 06:45:57;;;;;;;37.20;30.05;;;14.80;97.20;;;;;;1760936;28;20579;-72
2023/05/16 06:46:49;;;;;;;30.53;26.93;;;14.80;97.20;;;;;;1761531;28;20539;-72
2023/05/16 06:47:40;;;;;;;34.22;29.80;;;14.80;97.20;;;;;;1760849;28;20213;-73
2023/05/16 06:48:32;;;;;;;32.03;28.30;;;14.90;97.20;;;;;;1760820;28;20193;-71
2023/05/16 06:49:22;;;;;;;32.50;28.83;;;14.90;97.20;;;;;;1760784;28;20454;-72
2023/05/16 06:50:14;;;;;;;31.77;28.40;;;14.90;97.20;;;;;;1760866;28;20196;-73
2023/05/16 06:51:06;;;;;;;31.63;28.23;;;14.90;97.20;;;;;;1760910;28;20450;-72
2023/05/16 06:51:56;;;;;;;31.42;28.23;;;14.90;97.20;;;;;;1760068;28;20201;-72
2023/05/16 06:52:48;;;;;;;31.40;28.00;;;14.90;97.20;;;;;;1760814;28;20224;-71
2023/05/16 06:53:39;;;;;;;32.65;29.15;;;14.90;97.20;;;;;;1760860;28;20703;-72
2023/05/16 06:54:31;;;;;;;32.93;29.30;;;15.00;97.20;;;;;;1760942;28;20600;-73
2023/05/16 06:55:22;;;;;;;31.33;28.08;;;15.00;97.20;;;;;;1760914;28;20258;-72
2023/05/16 06:56:13;;;;;;;33.40;29.80;;;15.00;97.20;;;;;;1760762;28;20197;-72
2023/05/16 06:57:05;;;;;;;32.47;28.52;;;15.00;97.20;;;;;;1760812;28;20443;-72
2023/05/16 06:57:57;;;;;;;32.10;28.67;;;15.00;97.20;;;;;;1760836;28;20228;-72
2023/05/16 06:58:49;;;;;;;30.75;27.55;;;15.00;97.20;;;;;;1760774;28;20702;-72
2023/05/16 06:59:41;;;;;;;32.20;27.55;;;15.10;97.20;;;;;;1760845;28;20205;-72
2023/05/16 07:00:32;;;;;;;29.42;26.33;;;15.10;97.20;;;;;;1760740;28;20205;-72
2023/05/16 07:01:24;;;;;;;34.87;28.20;;;15.10;97.20;;;;;;1760780;28;20293;-73
2023/05/16 07:02:15;;;;;;;39.90;26.95;;;15.10;97.20;;;;;;1760811;28;20205;-73
2023/05/16 07:03:07;;;;;;;45.40;27.17;;;15.10;97.20;;;;;;1760665;28;20231;-72
2023/05/16 07:03:57;;;;;;;30.90;25.30;;;15.20;97.20;;;;;;1760483;28;20208;-72
2023/05/16 07:04:49;;;;;;;30.43;27.10;;;15.20;97.20;;;;;;1760681;28;20235;-72
2023/05/16 07:05:40;;;;;;;36.88;26.13;;;15.20;97.20;;;;;;1760689;28;20201;-73
2023/05/16 07:06:32;;;;;;;37.85;26.70;;;15.30;97.20;;;;;;1760777;28;20227;-73
2023/05/16 07:07:23;;;;;;;40.78;27.27;;;15.30;97.20;;;;;;1760728;28;20208;-72
2023/05/16 07:08:14;;;;;;;42.30;25.87;;;15.30;97.20;;;;;;1760699;28;20201;-72
2023/05/16 07:09:06;;;;;;;47.10;27.00;;;15.30;97.20;;;;;;1760619;28;20404;-73
2023/05/16 07:09:57;;;;;;;40.30;26.67;;;15.40;97.20;;;;;;1760752;28;20224;-72
2023/05/16 07:10:48;;;;;;;37.40;25.08;;;15.50;97.20;;;;;;1760960;28;20216;-73
2023/05/16 07:11:40;;;;;;;35.90;26.30;;;15.50;97.20;;;;;;1760754;28;20201;-73
2023/05/16 07:12:30;;;;;;;33.17;25.17;;;15.60;97.20;;;;;;1760489;28;20201;-72
2023/05/16 07:13:22;;;;;;;40.33;25.87;;;15.70;97.20;;;;;;1760332;28;20201;-73
2023/05/16 07:14:14;;;;;;;31.25;26.92;;;15.70;97.20;;;;;;1760665;28;20205;-73
2023/05/16 07:15:07;;;;;;;32.17;27.67;;;15.80;97.20;;;;;;1760587;28;20197;-73
2023/05/16 07:15:58;;;;;;;30.27;26.05;;;15.80;97.20;;;;;;1760691;28;20670;-72
2023/05/16 07:16:50;;;;;;;29.13;25.10;;;15.90;97.20;;;;;;1760621;28;20201;-73
2023/05/16 07:17:40;;;;;;;40.63;24.70;;;15.90;97.20;;;;;;1760645;28;20201;-73
2023/05/16 07:18:32;;;;;;;37.67;25.37;;;16.00;97.20;;;;;;1760711;28;20211;-73
2023/05/16 07:19:23;;;;;;;34.13;26.52;;;16.00;97.20;;;;;;1760690;28;20205;-73
2023/05/16 07:20:15;;;;;;;28.27;25.37;;;16.00;97.20;;;;;;1760651;28;20193;-73
2023/05/16 07:21:05;;;;;;;27.15;24.08;;;16.10;97.20;;;;;;1760647;28;20212;-73
2023/05/16 07:21:57;;;;;;;29.03;24.83;;;16.10;97.20;;;;;;1760656;28;20197;-73
2023/05/16 07:22:48;;;;;;;29.33;25.15;;;16.10;97.20;;;;;;1760757;28;20600;-73
2023/05/16 07:23:39;;;;;;;27.40;24.50;;;16.10;97.20;;;;;;1760211;28;20591;-73
2023/05/16 07:24:31;;;;;;;27.30;24.50;;;16.10;97.20;;;;;;1760697;28;20204;-73
2023/05/16 07:25:22;;;;;;;27.70;24.80;;;16.10;97.20;;;;;;1760751;28;20200;-72
2023/05/16 07:26:14;;;;;;;28.10;23.10;;;16.10;97.20;;;;;;1760626;28;20189;-73
2023/05/16 07:27:05;;;;;;;27.65;23.88;;;16.10;97.20;;;;;;1760561;28;20201;-73
2023/05/16 07:27:56;;;;;;;32.47;24.10;;;16.10;97.20;;;;;;1760569;28;20193;-73
2023/05/16 07:28:48;;;;;;;27.65;23.73;;;16.00;97.20;;;;;;1760568;28;20664;-73
2023/05/16 07:29:41;;;;;;;24.65;21.83;;;16.00;97.20;;;;;;1760686;28;20208;-73
2023/05/16 07:30:32;;;;;;;26.75;23.83;;;16.00;97.20;;;;;;1761679;28;20205;-73
2023/05/16 07:31:24;;;;;;;31.83;22.87;;;16.00;97.20;;;;;;1760721;28;20204;-73
2023/05/16 07:32:16;;;;;;;25.27;21.40;;;16.00;97.20;;;;;;1760433;28;20197;-73
2023/05/16 07:33:06;;;;;;;26.17;23.17;;;15.90;97.20;;;;;;1760470;28;20281;-73
2023/05/16 07:33:58;;;;;;;30.40;22.50;;;15.90;97.20;;;;;;1760267;28;20250;-72
2023/05/16 07:34:49;;;;;;;28.38;21.85;;;15.90;97.20;;;;;;1759159;28;20197;-73
2023/05/16 07:35:40;;;;;;;27.83;22.93;;;15.90;97.20;;;;;;1760324;28;20228;-72
2023/05/16 07:36:32;;;;;;;30.27;23.27;;;15.90;97.20;;;;;;1753830;28;20202;-73
2023/05/16 07:37:24;;;;;;;31.35;21.75;;;15.90;97.20;;;;;;1753431;28;20699;-73
2023/05/16 07:38:14;;;;;;;34.63;21.30;;;15.80;97.20;;;;;;1756441;28;20189;-72
2023/05/16 07:39:06;;;;;;;23.50;21.10;;;15.80;97.20;;;;;;1754286;28;20222;-73
2023/05/16 07:39:57;;;;;;;23.65;21.20;;;15.80;97.20;;;;;;1753532;28;20579;-73
2023/05/16 07:40:48;;;;;;;31.73;22.20;;;15.90;97.20;;;;;;1753477;28;20194;-73
2023/05/16 07:41:39;;;;;;;24.77;20.73;;;15.90;97.20;;;;;;1753512;28;20206;-73
2023/05/16 07:42:31;;;;;;;25.93;22.00;;;15.90;97.20;;;;;;1753342;28;20206;-73
2023/05/16 07:43:22;;;;;;;29.08;22.05;;;15.90;97.20;;;;;;1752686;28;20444;-73
2023/05/16 07:44:14;;;;;;;26.30;21.97;;;15.90;97.20;;;;;;1749309;28;20273;-72
2023/05/16 07:45:07;;;;;;;29.00;21.08;;;15.90;97.20;;;;;;1748762;28;20229;-73
2023/05/16 07:45:58;;;;;;;23.75;19.88;;;15.80;97.20;;;;;;1748855;28;20234;-73
2023/05/16 07:46:49;;;;;;;66.10;21.95;;;15.80;97.20;;;;;;1748695;28;20721;-73
2023/05/16 07:47:41;;;;;;;104.90;25.10;;;15.80;97.20;;;;;;1748839;28;20599;-73
2023/05/16 07:48:32;;;;;;;71.03;25.08;;;15.80;97.20;;;;;;1748739;28;21021;-73
2023/05/16 07:49:23;;;;;;;117.53;25.60;;;15.80;97.20;;;;;;1750738;28;20566;-73
2023/05/16 07:50:14;;;;;;;73.00;22.52;;;15.80;97.20;;;;;;1753276;28;20195;-73
2023/05/16 07:51:06;;;;;;;72.90;21.37;;;15.80;97.20;;;;;;1751332;28;20201;-73
2023/05/16 07:51:57;;;;;;;25.85;19.10;;;15.80;97.20;;;;;;1750243;28;20716;-73
2023/05/16 07:52:49;;;;;;;86.97;23.53;;;15.80;97.20;;;;;;1751128;28;20780;-73
2023/05/16 07:53:40;;;;;;;50.83;20.02;;;15.80;97.20;;;;;;1750253;28;20749;-73
2023/05/16 07:54:33;;;;;;;33.67;18.02;;;15.80;97.20;;;;;;1751076;28;20665;-72
2023/05/16 07:55:23;;;;;;;52.28;20.52;;;15.90;97.20;;;;;;1750738;28;20198;-73
2023/05/16 07:56:15;;;;;;;39.27;18.37;;;15.90;97.20;;;;;;1750943;28;20213;-73
2023/05/16 07:57:06;;;;;;;31.95;19.17;;;16.00;97.20;;;;;;1756391;28;20203;-72
2023/05/16 07:57:58;;;;;;;28.60;18.73;;;16.10;97.20;;;;;;1752153;28;20262;-72
2023/05/16 07:58:49;;;;;;;32.00;19.52;;;16.20;97.20;;;;;;1751121;28;20448;-72
2023/05/16 07:59:41;;;;;;;38.25;18.02;;;16.30;97.20;;;;;;1750742;28;20304;-72
2023/05/16 08:00:33;;;;;;;30.80;17.08;;;16.30;97.20;;;;;;1752050;28;20687;-73
2023/05/16 08:01:25;;;;;;;20.77;16.10;;;16.40;97.20;;;;;;1758312;28;20197;-72
2023/05/16 08:02:15;;;;;;;25.52;18.25;;;16.50;97.20;;;;;;1757450;28;20281;-72
2023/05/16 08:03:07;;;;;;;17.43;15.70;;;16.60;97.20;;;;;;1757455;28;20194;-72
2023/05/16 08:03:58;;;;;;;18.88;15.50;;;16.60;97.20;;;;;;1756727;28;20209;-73
2023/05/16 08:04:50;;;;;;;17.17;15.17;;;16.60;97.20;;;;;;1757637;28;20194;-73
2023/05/16 08:05:41;;;;;;;26.90;15.95;;;16.70;97.20;;;;;;1757281;28;20827;-72
2023/05/16 08:06:33;;;;;;;19.60;15.23;;;16.70;97.20;;;;;;1757653;28;20259;-72
2023/05/16 08:07:24;;;;;;;37.17;16.80;;;16.70;97.20;;;;;;1758066;28;20202;-72
2023/05/16 08:08:16;;;;;;;19.23;15.15;;;16.80;97.20;;;;;;1757950;28;20198;-73
2023/05/16 08:09:07;;;;;;;42.95;17.38;;;16.80;97.20;;;;;;1757797;28;20194;-73
2023/05/16 08:09:59;;;;;;;33.35;17.10;;;16.80;97.20;;;;;;1757880;28;20197;-72
2023/05/16 08:10:50;;;;;;;38.40;16.67;;;16.80;97.20;;;;;;1757763;28;20206;-72
2023/05/16 08:11:44;;;;;;;72.67;22.73;;;16.80;97.20;;;;;;1757454;28;20240;-73
2023/05/16 08:12:35;;;;;;;33.30;17.15;;;16.80;97.20;;;;;;1757609;28;20206;-72
2023/05/16 08:13:26;;;;;;;41.93;17.47;;;16.70;97.20;;;;;;1757497;28;20229;-73
2023/05/16 08:14:17;;;;;;;52.55;19.23;;;16.70;97.20;;;;;;1757903;28;20928;-73
2023/05/16 08:15:10;;;;;;;40.07;17.37;;;16.70;97.20;;;;;;1757756;28;20248;-72
2023/05/16 08:16:02;;;;;;;41.17;19.55;;;16.70;97.20;;;;;;1758341;28;20435;-73
2023/05/16 08:16:54;;;;;;;33.95;17.33;;;16.80;97.20;;;;;;1757563;28;20684;-72
2023/05/16 08:17:44;;;;;;;46.85;18.77;;;16.80;97.20;;;;;;1758313;28;20219;-73
2023/05/16 08:18:37;;;;;;;43.27;19.80;;;16.80;97.20;;;;;;1757772;28;20324;-73
2023/05/16 08:19:28;;;;;;;37.70;19.52;;;16.90;97.20;;;;;;1758183;28;20658;-73
2023/05/16 08:20:19;;;;;;;40.83;20.30;;;16.90;97.20;;;;;;1757813;28;20202;-73
2023/05/16 08:21:10;;;;;;;37.70;20.27;;;17.00;97.20;;;;;;1757810;28;20190;-73
2023/05/16 08:22:03;;;;;;;34.97;18.83;;;17.00;97.20;;;;;;1758287;28;20190;-73
2023/05/16 08:22:54;;;;;;;43.72;19.13;;;17.00;97.20;;;;;;1757871;28;20205;-73
2023/05/16 08:23:46;;;;;;;45.33;19.90;;;17.10;97.20;;;;;;1757268;28;20217;-73
2023/05/16 08:24:38;;;;;;;30.85;18.05;;;17.10;97.20;;;;;;1758497;28;20194;-73
2023/05/16 08:25:30;;;;;;;29.02;17.38;;;17.10;97.20;;;;;;1761492;28;20206;-72
2023/05/16 08:26:21;;;;;;;29.13;16.85;;;17.20;97.20;;;;;;1764652;28;20250;-72
2023/05/16 08:27:12;;;;;;;31.88;17.60;;;17.20;97.20;;;;;;1759015;28;20601;-73
2023/05/16 08:28:04;;;;;;;30.43;17.13;;;17.20;97.20;;;;;;1758066;28;20623;-73
2023/05/16 08:28:55;;;;;;;35.45;16.95;;;17.20;97.20;;;;;;1758096;28;20190;-72
2023/05/16 08:29:46;;;;;;;26.03;17.07;;;17.20;97.20;;;;;;1757517;28;20583;-73
2023/05/16 08:30:37;;;;;;;25.17;16.30;;;17.20;97.20;;;;;;1757796;28;20198;-73
2023/05/16 08:31:31;;;;;;;24.80;17.37;;;17.10;97.20;;;;;;1757908;28;20572;-73
2023/05/16 08:32:22;;;;;;;24.30;16.55;;;17.10;97.20;;;;;;1758024;28;20197;-73
2023/05/16 08:33:13;;;;;;;33.73;18.03;;;17.10;97.20;;;;;;1758247;28;20222;-73
2023/05/16 08:34:05;;;;;;;30.23;16.98;;;17.00;97.20;;;;;;1757777;28;20452;-73
2023/05/16 08:34:57;;;;;;;23.17;16.05;;;17.00;97.20;;;;;;1757852;28;20225;-73
2023/05/16 08:35:49;;;;;;;24.15;17.00;;;16.90;97.20;;;;;;1758049;28;20205;-73
2023/05/16 08:36:41;;;;;;;30.55;17.45;;;16.90;97.20;;;;;;1757899;28;20757;-72
2023/05/16 08:37:32;;;;;;;20.60;16.75;;;16.90;97.20;;;;;;1757897;28;20202;-72
2023/05/16 08:38:24;;;;;;;21.35;18.20;;;16.90;97.20;;;;;;1757664;28;20212;-72
2023/05/16 08:39:15;;;;;;;26.50;18.45;;;16.90;97.20;;;;;;1757834;28;20258;-73
2023/05/16 08:40:10;;;;;;;38.50;20.00;;;16.90;97.20;;;;;;1757828;28;20251;-73
2023/05/16 08:41:01;;;;;;;31.52;19.05;;;16.90;97.20;;;;;;1758234;28;20197;-72
2023/05/16 08:41:53;;;;;;;39.70;21.07;;;16.90;97.20;;;;;;1757920;28;20225;-73
2023/05/16 08:42:43;;;;;;;37.25;20.90;;;16.90;97.20;;;;;;1757741;28;20205;-73
2023/05/16 08:43:35;;;;;;;37.50;19.80;;;16.90;97.20;;;;;;1756862;28;20220;-73
2023/05/16 08:44:28;;;;;;;34.10;19.85;;;16.90;97.20;;;;;;1757854;28;20189;-73
2023/05/16 08:45:19;;;;;;;25.48;19.10;;;16.80;97.20;;;;;;1758194;28;20193;-73
2023/05/16 08:46:10;;;;;;;22.05;18.83;;;16.80;97.20;;;;;;1757781;28;20206;-73
2023/05/16 08:47:12;;;;;;;23.13;17.73;;;16.80;97.20;;;;;;1758149;28;20681;-72
2023/05/16 08:48:05;;;;;;;24.05;17.20;;;16.80;97.20;;;;;;1757999;28;20209;-73
2023/05/16 08:49:03;;;;;;;21.13;16.83;;;16.70;97.20;;;;;;1757721;28;20217;-73
2023/05/16 08:49:57;;;;;;;23.85;17.55;;;16.70;97.20;;;;;;1757871;28;20213;-73
2023/05/16 08:50:49;;;;;;;30.80;16.83;;;16.80;97.20;;;;;;1758234;28;20202;-73
2023/05/16 08:51:40;;;;;;;20.05;17.13;;;16.80;97.20;;;;;;1757193;28;20217;-73
2023/05/16 08:52:33;;;;;;;24.15;17.70;;;16.80;97.20;;;;;;1758825;28;20288;-72
2023/05/16 08:53:31;;;;;;;19.70;16.98;;;16.80;97.20;;;;;;1756941;28;20313;-73
2023/05/16 08:54:24;;;;;;;26.23;17.75;;;16.80;97.20;;;;;;1757440;28;20293;-73
2023/05/16 08:55:18;;;;;;;17.27;15.68;;;16.80;97.20;;;;;;1757652;28;20198;-73
2023/05/16 08:56:14;;;;;;;29.85;17.73;;;16.70;97.20;;;;;;1756724;28;20193;-73
2023/05/16 08:57:06;;;;;;;21.92;15.60;;;16.70;97.20;;;;;;1757924;28;20198;-74
2023/05/16 08:57:58;;;;;;;36.80;18.35;;;16.60;97.20;;;;;;1757770;28;20190;-73
2023/05/16 08:58:49;;;;;;;33.85;17.77;;;16.60;97.20;;;;;;1757930;28;20202;-72
2023/05/16 08:59:43;;;;;;;45.55;18.20;;;16.50;97.20;;;;;;1757828;28;20215;-73
2023/05/16 09:00:35;;;;;;;29.95;18.00;;;16.50;97.20;;;;;;1757694;28;20198;-73
2023/05/16 09:01:27;;;;;;;42.15;17.23;;;16.50;97.20;;;;;;1757571;28;20197;-73
2023/05/16 09:02:21;;;;;;;33.70;16.48;;;16.40;97.20;;;;;;1757560;28;20239;-73
2023/05/16 09:03:15;;;;;;;17.63;15.52;;;16.40;97.20;;;;;;1756864;28;20661;-73
2023/05/16 09:04:08;;;;;;;21.98;16.40;;;16.30;97.20;;;;;;1757654;28;20627;-73
2023/05/16 09:05:00;;;;;;;24.50;16.13;;;16.30;97.20;;;;;;1757700;28;20190;-73
2023/05/16 09:05:51;;;;;;;22.48;16.60;;;16.20;97.20;;;;;;1757095;28;20204;-73
2023/05/16 09:06:43;;;;;;;34.05;18.08;;;16.20;97.20;;;;;;1757167;28;20225;-73
2023/05/16 09:07:34;;;;;;;26.92;17.02;;;16.10;97.20;;;;;;1756964;28;20201;-72
2023/05/16 09:08:26;;;;;;;29.83;17.20;;;16.10;97.20;;;;;;1757646;28;20201;-73
2023/05/16 09:09:18;;;;;;;19.58;15.80;;;16.00;97.20;;;;;;1757349;28;20447;-73
2023/05/16 09:10:10;;;;;;;23.10;16.95;;;16.00;97.20;;;;;;1757994;28;20342;-72
2023/05/16 09:11:02;;;;;;;23.23;16.33;;;16.00;97.20;;;;;;1757543;28;20205;-73
2023/05/16 09:11:54;;;;;;;30.15;16.92;;;15.90;97.20;;;;;;1758102;28;20199;-72
2023/05/16 09:12:45;;;;;;;36.05;18.48;;;15.80;97.20;;;;;;1758205;28;20208;-73
2023/05/16 09:13:38;;;;;;;31.10;16.53;;;15.80;97.20;;;;;;1756832;28;20684;-75
2023/05/16 09:14:29;;;;;;;31.80;17.77;;;15.70;97.20;;;;;;1757683;28;20224;-73
2023/05/16 09:15:21;;;;;;;26.15;16.20;;;15.70;97.20;;;;;;1758048;28;20194;-73
2023/05/16 09:16:13;;;;;;;34.83;18.02;;;15.70;97.20;;;;;;1757478;28;20204;-73
2023/05/16 09:17:06;;;;;;;33.30;17.42;;;15.70;97.20;;;;;;1757503;28;20197;-72
2023/05/16 09:18:00;;;;;;;27.23;17.35;;;15.70;97.20;;;;;;1757566;28;20224;-73
2023/05/16 09:18:55;;;;;;;40.65;17.42;;;15.60;97.20;;;;;;1757471;28;20189;-73
2023/05/16 09:19:49;;;;;;;24.52;16.83;;;15.60;97.20;;;;;;1757552;28;20210;-73
2023/05/16 09:20:45;;;;;;;41.00;17.85;;;15.70;97.20;;;;;;1757030;28;20217;-73
2023/05/16 09:21:36;;;;;;;31.20;17.70;;;15.70;97.20;;;;;;1757567;28;20335;-73
2023/05/16 09:22:29;;;;;;;23.53;17.40;;;15.70;97.20;;;;;;1757328;28;20197;-73
2023/05/16 09:23:23;;;;;;;27.92;18.15;;;15.70;97.20;;;;;;1756845;28;20194;-72
2023/05/16 09:24:15;;;;;;;24.48;17.63;;;15.80;97.20;;;;;;1757654;28;20200;-73
2023/05/16 09:25:07;;;;;;;25.00;17.90;;;15.80;97.20;;;;;;1757343;28;20202;-73
2023/05/16 09:25:58;;;;;;;20.85;18.10;;;15.80;97.20;;;;;;1756297;28;20194;-75
2023/05/16 09:26:49;;;;;;;25.30;18.13;;;15.90;97.20;;;;;;1755276;28;20205;-74
2023/05/16 09:27:41;;;;;;;30.23;19.20;;;15.90;97.20;;;;;;1755302;28;20197;-75
2023/05/16 09:28:32;;;;;;;31.30;18.45;;;15.90;97.20;;;;;;1755094;28;20443;-75
2023/05/16 09:29:24;;;;;;;27.53;17.63;;;15.90;97.20;;;;;;1755934;28;20207;-72
2023/05/16 09:30:15;;;;;;;21.13;18.90;;;15.90;97.20;;;;;;1755827;28;20595;-75
2023/05/16 09:31:21;;;;;;;24.95;18.42;;;15.90;97.20;;;;;;1755251;28;20201;-73
2023/05/16 09:32:14;;;;;;;25.85;19.55;;;15.80;97.20;;;;;;1755370;28;20217;-73
2023/05/16 09:33:07;;;;;;;29.02;20.02;;;15.80;97.20;;;;;;1754998;28;20206;-73
2023/05/16 09:33:59;;;;;;;20.98;18.08;;;15.80;97.20;;;;;;1754347;28;20222;-73
2023/05/16 09:34:51;;;;;;;24.27;19.10;;;15.80;97.20;;;;;;1755033;28;20205;-73
2023/05/16 09:35:43;;;;;;;19.33;17.52;;;15.80;97.20;;;;;;1754943;28;20202;-73
2023/05/16 09:36:34;;;;;;;21.05;18.83;;;15.80;97.20;;;;;;1755001;28;20206;-73
2023/05/16 09:37:26;;;;;;;21.60;19.45;;;15.80;97.20;;;;;;1754927;28;20198;-73
2023/05/16 09:38:17;;;;;;;19.08;17.35;;;15.80;97.20;;;;;;1754997;28;20212;-72
2023/05/16 09:39:08;;;;;;;20.27;18.37;;;15.90;97.20;;;;;;1754947;28;20691;-73
2023/05/16 09:39:59;;;;;;;20.90;18.10;;;15.90;97.20;;;;;;1755062;28;20198;-73
2023/05/16 09:40:51;;;;;;;22.20;17.90;;;16.00;97.20;;;;;;1754958;28;20201;-73
2023/05/16 09:41:42;;;;;;;20.88;18.85;;;16.10;97.20;;;;;;1755072;28;20235;-73
2023/05/16 09:42:34;;;;;;;21.77;19.67;;;16.10;97.20;;;;;;1754806;28;20254;-73
2023/05/16 09:43:25;;;;;;;21.70;19.27;;;16.20;97.20;;;;;;1754176;28;20214;-73
2023/05/16 09:44:18;;;;;;;21.83;19.60;;;16.30;97.20;;;;;;1755019;28;20197;-73
2023/05/16 09:45:12;;;;;;;21.17;19.00;;;16.40;97.20;;;;;;1754797;28;20202;-73
2023/05/16 09:46:04;;;;;;;23.05;20.55;;;16.50;97.20;;;;;;1755115;28;20202;-72
2023/05/16 09:46:55;;;;;;;22.98;20.60;;;16.60;97.20;;;;;;1754974;28;20563;-73
2023/05/16 09:47:47;;;;;;;22.60;20.23;;;16.70;97.20;;;;;;1754985;28;20304;-73
2023/05/16 09:48:45;;;;;;;23.13;20.83;;;16.70;97.20;;;;;;1755055;28;20204;-73
2023/05/16 09:49:36;;;;;;;22.05;19.75;;;16.80;97.20;;;;;;1754972;28;20661;-74
2023/05/16 09:50:28;;;;;;;21.95;19.75;;;16.80;97.20;;;;;;1754927;28;20665;-73
2023/05/16 09:51:22;;;;;;;21.77;19.63;;;16.90;97.20;;;;;;1755037;28;20226;-73
2023/05/16 09:52:14;;;;;;;23.58;21.02;;;16.90;97.20;;;;;;1753784;28;20656;-73
2023/05/16 09:53:05;;;;;;;23.67;21.38;;;17.00;97.20;;;;;;1754830;28;20202;-73
2023/05/16 09:53:58;;;;;;;23.10;19.50;;;17.00;97.20;;;;;;1754088;28;20224;-73
2023/05/16 09:54:49;;;;;;;22.88;19.75;;;17.10;97.20;;;;;;1753332;28;20238;-74
2023/05/16 09:55:41;;;;;;;21.20;19.10;;;17.20;97.20;;;;;;1753323;28;20212;-73
2023/05/16 09:56:31;;;;;;;23.10;20.90;;;17.20;97.20;;;;;;1751977;28;20286;-74
2023/05/16 09:57:25;;;;;;;21.40;19.10;;;17.30;97.20;;;;;;1747305;28;20206;-73
2023/05/16 09:58:17;;;;;;;22.25;20.05;;;17.40;97.20;;;;;;1747891;28;20281;-73
2023/05/16 09:59:10;;;;;;;22.00;19.80;;;17.40;97.20;;;;;;1747895;28;20194;-73
2023/05/16 10:00:07;;;;;;;20.17;18.13;;;17.50;97.20;;;;;;1747966;28;20328;-73
2023/05/16 10:00:59;;;;;;;24.25;21.85;;;17.50;97.20;;;;;;1748050;28;20225;-72
2023/05/16 10:01:51;;;;;;;20.73;18.52;;;17.50;97.20;;;;;;1747842;28;20206;-73
2023/05/16 10:02:43;;;;;;;23.73;20.42;;;17.50;97.20;;;;;;1747952;28;20745;-73
2023/05/16 10:03:36;;;;;;;22.77;20.42;;;17.50;97.20;;;;;;1747054;28;20701;-73
2023/05/16 10:04:30;;;;;;;22.38;20.10;;;17.50;97.20;;;;;;1747915;28;20725;-73
2023/05/16 10:05:22;;;;;;;23.08;20.80;;;17.50;97.20;;;;;;1747768;28;20206;-73
2023/05/16 10:06:15;;;;;;;22.85;20.50;;;17.50;97.20;;;;;;1747680;28;20195;-73
2023/05/16 10:07:08;;;;;;;22.90;20.50;;;17.50;97.20;;;;;;1747586;28;20213;-72
2023/05/16 10:08:02;;;;;;;21.95;19.75;;;17.40;97.20;;;;;;1747904;28;20232;-73
2023/05/16 10:08:54;;;;;;;23.60;19.85;;;17.40;97.20;;;;;;1747825;28;20210;-73
2023/05/16 10:09:46;;;;;;;21.27;19.15;;;17.30;97.20;;;;;;1747872;28;20794;-76
2023/05/16 10:10:39;;;;;;;22.63;20.13;;;17.30;97.20;;;;;;1747923;28;20202;-75
2023/05/16 10:11:30;;;;;;;21.73;19.52;;;17.20;97.20;;;;;;1747802;28;20233;-72
2023/05/16 10:12:30;;;;;;;21.23;19.23;;;17.10;97.20;;;;;;1747901;28;20198;-73
2023/05/16 10:13:22;;;;;;;22.27;19.92;;;17.10;97.20;;;;;;1747060;28;20246;-73
2023/05/16 10:14:18;;;;;;;21.25;19.25;;;17.00;97.20;;;;;;1747765;28;20275;-73
2023/05/16 10:15:09;;;;;;;23.38;20.98;;;17.00;97.20;;;;;;1747737;28;20621;-72
2023/05/16 10:16:06;;;;;;;23.40;20.90;;;17.00;97.20;;;;;;1747878;28;20202;-73
2023/05/16 10:16:57;;;;;;;22.70;20.33;;;17.10;97.20;;;;;;1747963;28;20614;-72
2023/05/16 10:17:53;;;;;;;23.00;20.70;;;17.10;97.20;;;;;;1747891;28;20280;-72
2023/05/16 10:18:44;;;;;;;21.65;19.52;;;17.20;97.20;;;;;;1747929;28;20233;-74
2023/05/16 10:19:39;;;;;;;22.35;20.05;;;17.20;97.20;;;;;;1747827;28;20203;-73
2023/05/16 10:20:30;;;;;;;22.35;19.83;;;17.30;97.20;;;;;;1747793;28;20233;-72
2023/05/16 10:21:24;;;;;;;23.87;20.37;;;17.40;97.20;;;;;;1747859;28;20199;-73
2023/05/16 10:22:16;;;;;;;25.55;21.17;;;17.50;97.20;;;;;;1747752;28;20568;-72
2023/05/16 10:23:13;;;;;;;22.92;20.63;;;17.60;97.20;;;;;;1747592;28;20711;-73
2023/05/16 10:24:06;;;;;;;24.55;20.50;;;17.70;97.20;;;;;;1747869;28;20202;-73